createdAt,value
2023-04-23T00:00:30.006Z,908.00
2023-04-23T00:01:29.052Z,910.00
2023-04-23T00:02:30.266Z,908.00
2023-04-23T00:03:29.299Z,911.00
2023-04-23T00:04:29.385Z,915.00
2023-04-23T00:05:29.417Z,916.00
2023-04-23T00:06:30.372Z,898.00
2023-04-23T00:07:30.473Z,916.00
2023-04-23T00:08:29.496Z,896.00
2023-04-23T00:09:30.575Z,905.00
2023-04-23T00:10:30.615Z,892.00
2023-04-23T00:11:29.686Z,911.00
2023-04-23T00:12:30.727Z,920.00
2023-04-23T00:13:30.795Z,907.00
2023-04-23T00:14:30.858Z,906.00
2023-04-23T00:15:29.922Z,895.00
2023-04-23T00:16:31.025Z,910.00
2023-04-23T00:17:30.096Z,895.00
2023-04-23T00:18:30.093Z,899.00
2023-04-23T00:19:30.141Z,910.00
2023-04-23T00:20:30.228Z,907.00
2023-04-23T00:21:30.265Z,912.00
2023-04-23T00:22:30.322Z,909.00
2023-04-23T00:23:30.406Z,897.00
2023-04-23T00:24:31.462Z,891.00
2023-04-23T00:25:30.492Z,908.00
2023-04-23T00:26:31.578Z,902.00
2023-04-23T00:27:31.987Z,913.00
2023-04-23T00:28:30.696Z,908.00
2023-04-23T00:29:30.743Z,907.00
2023-04-23T00:30:30.813Z,909.00
2023-04-23T00:31:31.902Z,905.00
2023-04-23T00:32:30.972Z,917.00
2023-04-23T00:33:31.008Z,916.00
2023-04-23T00:34:31.747Z,902.00
2023-04-23T00:35:32.128Z,909.00
2023-04-23T00:36:32.206Z,887.00
2023-04-23T00:37:32.255Z,904.00
2023-04-23T00:38:32.328Z,898.00
2023-04-23T00:39:32.397Z,916.00
2023-04-23T00:40:32.670Z,906.00
2023-04-23T00:41:31.485Z,910.00
2023-04-23T00:42:31.558Z,895.00
2023-04-23T00:43:31.610Z,904.00
2023-04-23T00:44:31.658Z,900.00
2023-04-23T00:45:31.778Z,907.00
2023-04-23T00:46:32.797Z,908.00
2023-04-23T00:47:32.869Z,899.00
2023-04-23T00:48:31.904Z,894.00
2023-04-23T00:49:31.953Z,892.00
2023-04-23T00:50:32.015Z,881.00
2023-04-23T00:51:33.128Z,901.00
2023-04-23T00:52:33.139Z,887.00
2023-04-23T00:53:33.206Z,906.00
2023-04-23T00:54:32.247Z,899.00
2023-04-23T00:55:33.349Z,905.00
2023-04-23T00:56:33.375Z,899.00
2023-04-23T00:57:33.448Z,903.00
2023-04-23T00:58:33.512Z,905.00
2023-04-23T00:59:33.563Z,899.00
2023-04-23T01:00:32.624Z,904.00
2023-04-23T01:01:32.712Z,887.00
2023-04-23T01:02:33.836Z,893.00
2023-04-23T01:03:33.877Z,906.00
2023-04-23T01:04:32.883Z,902.00
2023-04-23T01:05:33.962Z,915.00
2023-04-23T01:06:33.015Z,897.00
2023-04-23T01:07:33.072Z,892.00
2023-04-23T01:08:33.119Z,889.00
2023-04-23T01:09:34.201Z,899.00
2023-04-23T01:10:34.240Z,899.00
2023-04-23T01:11:34.361Z,898.00
2023-04-23T01:12:34.358Z,889.00
2023-04-23T01:13:33.393Z,899.00
2023-04-23T01:14:33.420Z,899.00
2023-04-23T01:15:34.456Z,877.00
2023-04-23T01:16:34.525Z,903.00
2023-04-23T01:17:34.650Z,892.00
2023-04-23T01:18:34.577Z,885.00
2023-04-23T01:19:33.630Z,893.00
2023-04-23T01:20:33.642Z,899.00
2023-04-23T01:21:33.680Z,890.00
2023-04-23T01:22:34.713Z,889.00
2023-04-23T01:23:33.760Z,893.00
2023-04-23T01:24:34.788Z,893.00
2023-04-23T01:25:34.825Z,895.00
2023-04-23T01:26:34.869Z,890.00
2023-04-23T01:27:34.919Z,900.00
2023-04-23T01:28:34.949Z,885.00
2023-04-23T01:29:34.979Z,899.00
2023-04-23T01:30:35.025Z,885.00
2023-04-23T01:31:35.070Z,908.00
2023-04-23T01:32:35.206Z,891.00
2023-04-23T01:33:35.184Z,901.00
2023-04-23T01:34:35.246Z,905.00
2023-04-23T01:35:35.299Z,900.00
2023-04-23T01:36:34.358Z,893.00
2023-04-23T01:37:35.433Z,884.00
2023-04-23T01:38:34.511Z,883.00
2023-04-23T01:39:35.541Z,882.00
2023-04-23T01:40:35.598Z,891.00
2023-04-23T01:41:35.675Z,890.00
2023-04-23T01:42:35.720Z,890.00
2023-04-23T01:43:35.827Z,882.00
2023-04-23T01:44:34.832Z,895.00
2023-04-23T01:45:35.872Z,899.00
2023-04-23T01:46:36.076Z,886.00
2023-04-23T01:47:36.016Z,882.00
2023-04-23T01:48:35.012Z,898.00
2023-04-23T01:49:36.057Z,887.00
2023-04-23T01:50:35.102Z,891.00
2023-04-23T01:51:35.146Z,895.00
2023-04-23T01:52:35.190Z,894.00
2023-04-23T01:53:35.219Z,898.00
2023-04-23T01:54:36.266Z,887.00
2023-04-23T01:55:35.299Z,888.00
2023-04-23T01:56:36.340Z,892.00
2023-04-23T01:57:35.361Z,896.00
2023-04-23T01:58:35.380Z,888.00
2023-04-23T01:59:35.458Z,887.00
2023-04-23T02:00:36.456Z,877.00
2023-04-23T02:01:35.473Z,882.00
2023-04-23T02:02:36.605Z,879.00
2023-04-23T02:03:36.628Z,879.00
2023-04-23T02:04:35.505Z,891.00
2023-04-23T02:05:36.425Z,889.00
2023-04-23T02:06:36.434Z,888.00
2023-04-23T02:07:36.435Z,877.00
2023-04-23T02:08:35.421Z,875.00
2023-04-23T02:09:36.410Z,886.00
2023-04-23T02:10:35.422Z,888.00
2023-04-23T02:11:35.400Z,876.00
2023-04-23T02:12:36.405Z,885.00
2023-04-23T02:13:36.420Z,896.00
2023-04-23T02:14:36.438Z,903.00
2023-04-23T02:15:35.420Z,880.00
2023-04-23T02:16:36.410Z,880.00
2023-04-23T02:17:36.513Z,884.00
2023-04-23T02:18:36.398Z,876.00
2023-04-23T02:19:35.374Z,887.00
2023-04-23T02:20:36.395Z,894.00
2023-04-23T02:21:36.393Z,886.00
2023-04-23T02:22:36.380Z,898.00
2023-04-23T02:23:35.377Z,881.00
2023-04-23T02:24:36.377Z,879.00
2023-04-23T02:25:35.404Z,869.00
2023-04-23T02:26:35.398Z,881.00
2023-04-23T02:27:36.392Z,877.00
2023-04-23T02:28:36.369Z,884.00
2023-04-23T02:29:36.382Z,879.00
2023-04-23T02:30:36.430Z,870.00
2023-04-23T02:31:36.415Z,879.00
2023-04-23T02:32:35.404Z,874.00
2023-04-23T02:33:35.362Z,871.00
2023-04-23T02:34:35.362Z,876.00
2023-04-23T02:35:35.383Z,880.00
2023-04-23T02:36:36.347Z,873.00
2023-04-23T02:37:35.392Z,881.00
2023-04-23T02:38:35.355Z,885.00
2023-04-23T02:39:36.529Z,881.00
2023-04-23T02:40:35.339Z,878.00
2023-04-23T02:41:36.334Z,866.00
2023-04-23T02:43:06.294Z,500.00
2023-04-23T02:44:07.300Z,500.00
2023-04-23T02:45:07.274Z,500.00
2023-04-23T02:46:07.276Z,500.00
2023-04-23T02:47:07.344Z,500.00
2023-04-23T02:48:07.278Z,500.00
2023-04-23T02:49:06.270Z,500.00
2023-04-23T02:50:07.257Z,500.00
2023-04-23T02:51:07.255Z,507.00
2023-04-23T02:52:07.410Z,508.00
2023-04-23T02:53:07.225Z,504.00
2023-04-23T02:54:07.222Z,504.00
2023-04-23T02:55:06.215Z,505.00
2023-04-23T02:56:07.224Z,501.00
2023-04-23T02:57:07.207Z,500.00
2023-04-23T02:58:07.247Z,502.00
2023-04-23T02:59:07.184Z,501.00
2023-04-23T03:00:07.181Z,506.00
2023-04-23T03:01:07.222Z,504.00
2023-04-23T03:02:06.298Z,506.00
2023-04-23T03:03:07.371Z,507.00
2023-04-23T03:04:07.281Z,503.00
2023-04-23T03:05:07.148Z,504.00
2023-04-23T03:06:07.236Z,505.00
2023-04-23T03:07:07.127Z,506.00
2023-04-23T03:08:07.127Z,505.00
2023-04-23T03:09:06.112Z,509.00
2023-04-23T03:10:07.125Z,506.00
2023-04-23T03:11:07.100Z,504.00
2023-04-23T03:12:07.101Z,512.00
2023-04-23T03:13:06.115Z,504.00
2023-04-23T03:14:06.196Z,508.00
2023-04-23T03:15:07.094Z,508.00
2023-04-23T03:16:06.066Z,508.00
2023-04-23T03:17:06.093Z,504.00
2023-04-23T03:18:07.093Z,504.00
2023-04-23T03:19:06.058Z,500.00
2023-04-23T03:20:07.024Z,504.00
2023-04-23T03:21:07.015Z,503.00
2023-04-23T03:22:06.015Z,509.00
2023-04-23T03:23:06.009Z,503.00
2023-04-23T03:24:05.986Z,507.00
2023-04-23T03:25:06.995Z,507.00
2023-04-23T03:26:06.990Z,504.00
2023-04-23T03:27:05.972Z,505.00
2023-04-23T03:28:05.987Z,503.00
2023-04-23T03:29:05.954Z,511.00
2023-04-23T03:30:05.950Z,507.00
2023-04-23T03:31:07.006Z,510.00
2023-04-23T03:32:05.938Z,505.00
2023-04-23T03:33:06.938Z,507.00
2023-04-23T03:34:06.922Z,504.00
2023-04-23T03:35:06.952Z,507.00
2023-04-23T03:36:05.900Z,505.00
2023-04-23T03:37:06.896Z,502.00
2023-04-23T03:38:05.893Z,503.00
2023-04-23T03:39:06.879Z,505.00
2023-04-23T03:40:05.890Z,505.00
2023-04-23T03:41:06.863Z,507.00
2023-04-23T03:42:06.853Z,507.00
2023-04-23T03:43:06.864Z,514.00
2023-04-23T03:44:06.894Z,505.00
2023-04-23T03:45:06.859Z,506.00
2023-04-23T03:46:08.306Z,503.00
2023-04-23T03:47:06.827Z,516.00
2023-04-23T03:48:06.836Z,511.00
2023-04-23T03:49:06.796Z,505.00
2023-04-23T03:50:05.794Z,511.00
2023-04-23T03:51:06.807Z,507.00
2023-04-23T03:52:06.840Z,509.00
2023-04-23T03:53:05.790Z,509.00
2023-04-23T03:54:06.775Z,513.00
2023-04-23T03:55:05.766Z,507.00
2023-04-23T03:56:05.764Z,504.00
2023-04-23T03:57:05.796Z,502.00
2023-04-23T03:58:06.754Z,504.00
2023-04-23T03:59:06.752Z,506.00
2023-04-23T04:00:06.740Z,505.00
2023-04-23T04:01:06.724Z,510.00
2023-04-23T04:02:06.758Z,509.00
2023-04-23T04:03:06.979Z,504.00
2023-04-23T04:04:05.862Z,510.00
2023-04-23T04:05:06.965Z,507.00
2023-04-23T04:06:05.677Z,512.00
2023-04-23T04:07:06.725Z,509.00
2023-04-23T04:08:06.695Z,507.00
2023-04-23T04:09:06.668Z,509.00
2023-04-23T04:10:06.680Z,502.00
2023-04-23T04:11:05.641Z,507.00
2023-04-23T04:12:05.645Z,500.00
2023-04-23T04:13:05.630Z,506.00
2023-04-23T04:14:05.623Z,507.00
2023-04-23T04:15:05.619Z,508.00
2023-04-23T04:16:05.665Z,509.00
2023-04-23T04:17:05.613Z,507.00
2023-04-23T04:18:06.598Z,509.00
2023-04-23T04:19:05.585Z,505.00
2023-04-23T04:20:06.580Z,503.00
2023-04-23T04:21:06.583Z,509.00
2023-04-23T04:22:06.586Z,504.00
2023-04-23T04:23:06.597Z,511.00
2023-04-23T04:24:06.552Z,502.00
2023-04-23T04:25:06.551Z,507.00
2023-04-23T04:26:05.531Z,505.00
2023-04-23T04:27:05.517Z,504.00
2023-04-23T04:28:06.536Z,505.00
2023-04-23T04:29:06.582Z,507.00
2023-04-23T04:30:05.517Z,507.00
2023-04-23T04:31:05.610Z,508.00
2023-04-23T04:32:06.493Z,503.00
2023-04-23T04:33:05.494Z,504.00
2023-04-23T04:34:06.696Z,508.00
2023-04-23T04:35:05.477Z,506.00
2023-04-23T04:36:06.470Z,504.00
2023-04-23T04:37:06.460Z,505.00
2023-04-23T04:38:06.598Z,508.00
2023-04-23T04:39:06.595Z,506.00
2023-04-23T04:40:05.422Z,510.00
2023-04-23T04:41:05.451Z,507.00
2023-04-23T04:42:06.423Z,507.00
2023-04-23T04:43:06.445Z,510.00
2023-04-23T04:44:05.408Z,511.00
2023-04-23T04:45:05.406Z,504.00
2023-04-23T04:46:07.623Z,509.00
2023-04-23T04:47:06.466Z,508.00
2023-04-23T04:48:06.400Z,505.00
2023-04-23T04:49:06.371Z,505.00
2023-04-23T04:50:06.352Z,506.00
2023-04-23T04:51:06.376Z,508.00
2023-04-23T04:52:06.349Z,507.00
2023-04-23T04:53:05.352Z,509.00
2023-04-23T04:54:06.336Z,507.00
2023-04-23T04:55:06.345Z,506.00
2023-04-23T04:56:06.303Z,505.00
2023-04-23T04:57:06.335Z,504.00
2023-04-23T04:58:06.338Z,509.00
2023-04-23T04:59:06.346Z,507.00
2023-04-23T05:00:06.555Z,510.00
2023-04-23T05:01:06.363Z,508.00
2023-04-23T05:02:06.404Z,512.00
2023-04-23T05:03:06.595Z,513.00
2023-04-23T05:04:06.641Z,506.00
2023-04-23T05:05:06.383Z,511.00
2023-04-23T05:06:06.417Z,505.00
2023-04-23T05:07:05.402Z,508.00
2023-04-23T05:08:06.396Z,506.00
2023-04-23T05:09:05.428Z,507.00
2023-04-23T05:10:06.418Z,507.00
2023-04-23T05:11:06.468Z,511.00
2023-04-23T05:12:06.493Z,506.00
2023-04-23T05:13:06.425Z,506.00
2023-04-23T05:14:06.440Z,507.00
2023-04-23T05:15:06.430Z,511.00
2023-04-23T05:16:06.425Z,509.00
2023-04-23T05:17:05.410Z,514.00
2023-04-23T05:18:05.437Z,505.00
2023-04-23T05:19:05.408Z,509.00
2023-04-23T05:20:06.398Z,508.00
2023-04-23T05:21:06.412Z,509.00
2023-04-23T05:22:05.394Z,511.00
2023-04-23T05:23:06.405Z,504.00
2023-04-23T05:24:05.387Z,509.00
2023-04-23T05:25:05.371Z,504.00
2023-04-23T05:26:06.386Z,506.00
2023-04-23T05:27:06.427Z,508.00
2023-04-23T05:28:06.378Z,509.00
2023-04-23T05:29:06.411Z,507.00
2023-04-23T05:30:06.387Z,508.00
2023-04-23T05:31:06.777Z,507.00
2023-04-23T05:32:06.377Z,502.00
2023-04-23T05:33:06.431Z,510.00
2023-04-23T05:34:05.373Z,515.00
2023-04-23T05:35:05.366Z,511.00
2023-04-23T05:36:05.372Z,502.00
2023-04-23T05:37:06.366Z,508.00
2023-04-23T05:38:05.350Z,508.00
2023-04-23T05:39:06.373Z,515.00
2023-04-23T05:40:06.343Z,506.00
2023-04-23T05:41:05.371Z,506.00
2023-04-23T05:42:05.403Z,505.00
2023-04-23T05:43:06.460Z,516.00
2023-04-23T05:44:06.437Z,509.00
2023-04-23T05:45:08.035Z,513.00
2023-04-23T05:46:06.564Z,517.00
2023-04-23T05:47:06.469Z,518.00
2023-04-23T05:48:05.476Z,516.00
2023-04-23T05:49:05.466Z,515.00
2023-04-23T05:50:06.470Z,504.00
2023-04-23T05:51:05.441Z,514.00
2023-04-23T05:52:05.429Z,511.00
2023-04-23T05:53:06.413Z,509.00
2023-04-23T05:54:06.444Z,506.00
2023-04-23T05:55:05.419Z,503.00
2023-04-23T05:56:06.415Z,512.00
2023-04-23T05:57:05.398Z,510.00
2023-04-23T05:58:06.395Z,512.00
2023-04-23T05:59:06.427Z,513.00
2023-04-23T06:00:06.384Z,514.00
2023-04-23T06:01:06.352Z,510.00
2023-04-23T06:02:06.480Z,506.00
2023-04-23T06:03:06.434Z,507.00
2023-04-23T06:04:06.627Z,511.00
2023-04-23T06:05:06.446Z,513.00
2023-04-23T06:06:06.365Z,512.00
2023-04-23T06:07:05.318Z,509.00
2023-04-23T06:08:06.300Z,512.00
2023-04-23T06:09:06.327Z,512.00
2023-04-23T06:10:06.309Z,509.00
2023-04-23T06:11:05.278Z,507.00
2023-04-23T06:12:06.284Z,514.00
2023-04-23T06:13:05.270Z,514.00
2023-04-23T06:14:05.275Z,515.00
2023-04-23T06:15:05.325Z,511.00
2023-04-23T06:16:06.260Z,511.00
2023-04-23T06:17:06.239Z,514.00
2023-04-23T06:18:06.331Z,510.00
2023-04-23T06:19:06.231Z,515.00
2023-04-23T06:20:05.216Z,511.00
2023-04-23T06:21:06.242Z,514.00
2023-04-23T06:22:06.196Z,515.00
2023-04-23T06:23:05.191Z,516.00
2023-04-23T06:24:06.186Z,513.00
2023-04-23T06:25:06.178Z,522.00
2023-04-23T06:26:06.173Z,515.00
2023-04-23T06:27:06.212Z,506.00
2023-04-23T06:28:06.143Z,513.00
2023-04-23T06:29:06.137Z,514.00
2023-04-23T06:30:05.136Z,513.00
2023-04-23T06:31:06.173Z,514.00
2023-04-23T06:32:06.164Z,516.00
2023-04-23T06:33:05.193Z,511.00
2023-04-23T06:34:05.269Z,509.00
2023-04-23T06:35:06.329Z,509.00
2023-04-23T06:36:06.094Z,512.00
2023-04-23T06:37:05.078Z,509.00
2023-04-23T06:38:05.069Z,516.00
2023-04-23T06:39:06.077Z,510.00
2023-04-23T06:40:06.059Z,512.00
2023-04-23T06:41:06.062Z,515.00
2023-04-23T06:42:06.037Z,515.00
2023-04-23T06:43:06.027Z,517.00
2023-04-23T06:44:05.033Z,518.00
2023-04-23T06:45:06.455Z,519.00
2023-04-23T06:46:05.009Z,515.00
2023-04-23T06:47:05.144Z,513.00
2023-04-23T06:48:06.116Z,519.00
2023-04-23T06:49:05.978Z,512.00
2023-04-23T06:50:05.984Z,514.00
2023-04-23T06:51:04.989Z,511.00
2023-04-23T06:52:05.963Z,520.00
2023-04-23T06:53:05.947Z,514.00
2023-04-23T06:54:05.952Z,514.00
2023-04-23T06:55:04.944Z,514.00
2023-04-23T06:56:04.934Z,518.00
2023-04-23T06:57:05.966Z,518.00
2023-04-23T06:58:04.954Z,515.00
2023-04-23T06:59:05.929Z,511.00
2023-04-23T07:00:04.903Z,511.00
2023-04-23T07:01:05.957Z,517.00
2023-04-23T07:02:05.946Z,521.00
2023-04-23T07:03:05.109Z,513.00
2023-04-23T07:04:04.948Z,514.00
2023-04-23T07:05:05.894Z,524.00
2023-04-23T07:06:05.865Z,515.00
2023-04-23T07:07:04.903Z,518.00
2023-04-23T07:08:05.843Z,513.00
2023-04-23T07:09:04.862Z,520.00
2023-04-23T07:10:05.843Z,514.00
2023-04-23T07:11:04.842Z,520.00
2023-04-23T07:12:05.834Z,519.00
2023-04-23T07:13:05.841Z,520.00
2023-04-23T07:14:04.816Z,524.00
2023-04-23T07:15:05.835Z,521.00
2023-04-23T07:16:05.810Z,518.00
2023-04-23T07:17:04.888Z,525.00
2023-04-23T07:18:04.782Z,518.00
2023-04-23T07:19:05.822Z,515.00
2023-04-23T07:20:04.786Z,522.00
2023-04-23T07:21:04.781Z,520.00
2023-04-23T07:22:05.759Z,524.00
2023-04-23T07:23:05.743Z,521.00
2023-04-23T07:24:04.749Z,525.00
2023-04-23T07:25:05.753Z,523.00
2023-04-23T07:26:05.734Z,520.00
2023-04-23T07:27:05.748Z,523.00
2023-04-23T07:28:04.713Z,526.00
2023-04-23T07:29:04.722Z,522.00
2023-04-23T07:30:04.707Z,526.00
2023-04-23T07:31:04.705Z,526.00
2023-04-23T07:32:04.745Z,538.00
2023-04-23T07:33:05.744Z,527.00
2023-04-23T07:34:05.669Z,532.00
2023-04-23T07:35:05.704Z,532.00
2023-04-23T07:36:05.644Z,528.00
2023-04-23T07:37:04.649Z,535.00
2023-04-23T07:38:05.658Z,536.00
2023-04-23T07:39:05.690Z,537.00
2023-04-23T07:40:05.646Z,536.00
2023-04-23T07:41:05.612Z,536.00
2023-04-23T07:42:04.611Z,539.00
2023-04-23T07:43:05.604Z,542.00
2023-04-23T07:44:05.609Z,539.00
2023-04-23T07:45:05.584Z,543.00
2023-04-23T07:46:05.639Z,545.00
2023-04-23T07:47:04.583Z,546.00
2023-04-23T07:48:05.576Z,547.00
2023-04-23T07:49:04.599Z,553.00
2023-04-23T07:50:05.563Z,551.00
2023-04-23T07:51:04.609Z,554.00
2023-04-23T07:52:05.541Z,558.00
2023-04-23T07:53:05.068Z,561.00
2023-04-23T07:54:05.561Z,574.00
2023-04-23T07:55:05.532Z,571.00
2023-04-23T07:56:04.510Z,579.00
2023-04-23T07:57:04.524Z,590.00
2023-04-23T07:58:04.500Z,583.00
2023-04-23T07:59:05.479Z,588.00
2023-04-23T08:00:04.493Z,584.00
2023-04-23T08:01:05.464Z,584.00
2023-04-23T08:02:05.526Z,588.00
2023-04-23T08:03:05.558Z,590.00
2023-04-23T08:04:04.766Z,588.00
2023-04-23T08:05:04.555Z,588.00
2023-04-23T08:06:05.450Z,578.00
2023-04-23T08:07:05.485Z,585.00
2023-04-23T08:08:04.411Z,583.00
2023-04-23T08:09:05.453Z,583.00
2023-04-23T08:10:05.454Z,583.00
2023-04-23T08:11:04.401Z,582.00
2023-04-23T08:12:04.414Z,581.00
2023-04-23T08:13:04.372Z,587.00
2023-04-23T08:14:04.369Z,579.00
2023-04-23T08:15:05.392Z,585.00
2023-04-23T08:16:05.411Z,579.00
2023-04-23T08:17:04.349Z,581.00
2023-04-23T08:18:05.336Z,586.00
2023-04-23T08:19:06.415Z,583.00
2023-04-23T08:20:04.445Z,582.00
2023-04-23T08:21:04.485Z,582.00
2023-04-23T08:22:04.545Z,584.00
2023-04-23T08:23:05.637Z,583.00
2023-04-23T08:24:05.676Z,576.00
2023-04-23T08:25:05.720Z,579.00
2023-04-23T08:26:05.794Z,574.00
2023-04-23T08:27:05.876Z,572.00
2023-04-23T08:28:04.917Z,576.00
2023-04-23T08:29:05.036Z,576.00
2023-04-23T08:30:06.065Z,564.00
2023-04-23T08:31:12.154Z,568.00
2023-04-23T08:32:06.172Z,568.00
2023-04-23T08:33:06.249Z,568.00
2023-04-23T08:34:06.080Z,569.00
2023-04-23T08:35:05.109Z,567.00
2023-04-23T08:36:06.073Z,571.00
2023-04-23T08:37:08.480Z,565.00
2023-04-23T08:38:05.046Z,566.00
2023-04-23T08:39:06.069Z,567.00
2023-04-23T08:40:05.068Z,569.00
2023-04-23T08:41:06.052Z,569.00
2023-04-23T08:42:06.021Z,571.00
2023-04-23T08:43:06.001Z,569.00
2023-04-23T08:44:06.004Z,570.00
2023-04-23T08:45:06.163Z,570.00
2023-04-23T08:46:06.020Z,566.00
2023-04-23T08:47:05.075Z,567.00
2023-04-23T08:48:06.145Z,569.00
2023-04-23T08:49:06.174Z,572.00
2023-04-23T08:50:06.260Z,563.00
2023-04-23T08:51:06.307Z,566.00
2023-04-23T08:52:06.350Z,561.00
2023-04-23T08:53:06.426Z,568.00
2023-04-23T08:54:06.479Z,568.00
2023-04-23T08:55:06.523Z,563.00
2023-04-23T08:56:05.540Z,564.00
2023-04-23T08:57:05.598Z,565.00
2023-04-23T08:58:06.648Z,563.00
2023-04-23T08:59:06.773Z,564.00
2023-04-23T09:00:06.804Z,561.00
2023-04-23T09:01:06.871Z,558.00
2023-04-23T09:02:06.958Z,562.00
2023-04-23T09:03:06.118Z,558.00
2023-04-23T09:04:05.996Z,565.00
2023-04-23T09:05:07.044Z,557.00
2023-04-23T09:06:06.086Z,561.00
2023-04-23T09:07:06.126Z,561.00
2023-04-23T09:08:06.170Z,565.00
2023-04-23T09:09:07.240Z,555.00
2023-04-23T09:10:06.260Z,555.00
2023-04-23T09:11:07.399Z,554.00
2023-04-23T09:12:07.383Z,552.00
2023-04-23T09:13:07.437Z,555.00
2023-04-23T09:14:06.470Z,552.00
2023-04-23T09:15:06.515Z,550.00
2023-04-23T09:16:07.802Z,555.00
2023-04-23T09:17:06.619Z,552.00
2023-04-23T09:18:07.660Z,549.00
2023-04-23T09:19:06.697Z,551.00
2023-04-23T09:20:07.762Z,544.00
2023-04-23T09:21:06.763Z,544.00
2023-04-23T09:22:06.815Z,545.00
2023-04-23T09:23:07.872Z,547.00
2023-04-23T09:24:06.874Z,545.00
2023-04-23T09:25:06.925Z,541.00
2023-04-23T09:26:07.962Z,542.00
2023-04-23T09:27:08.046Z,544.00
2023-04-23T09:28:08.036Z,542.00
2023-04-23T09:29:08.064Z,542.00
2023-04-23T09:30:08.095Z,544.00
2023-04-23T09:31:08.105Z,542.00
2023-04-23T09:32:08.203Z,540.00
2023-04-23T09:33:08.227Z,543.00
2023-04-23T09:34:08.202Z,538.00
2023-04-23T09:35:08.257Z,541.00
2023-04-23T09:36:08.275Z,541.00
2023-04-23T09:37:08.285Z,540.00
2023-04-23T09:38:08.313Z,541.00
2023-04-23T09:39:08.349Z,537.00
2023-04-23T09:40:07.389Z,538.00
2023-04-23T09:41:08.424Z,537.00
2023-04-23T09:42:07.450Z,539.00
2023-04-23T09:43:08.515Z,542.00
2023-04-23T09:44:07.529Z,541.00
2023-04-23T09:45:08.562Z,541.00
2023-04-23T09:46:08.629Z,537.00
2023-04-23T09:47:07.629Z,536.00
2023-04-23T09:48:08.730Z,535.00
2023-04-23T09:49:07.781Z,538.00
2023-04-23T09:50:08.774Z,534.00
2023-04-23T09:51:08.796Z,539.00
2023-04-23T09:52:08.833Z,534.00
2023-04-23T09:53:08.872Z,542.00
2023-04-23T09:54:08.902Z,534.00
2023-04-23T09:55:08.922Z,538.00
2023-04-23T09:56:08.944Z,534.00
2023-04-23T09:57:09.002Z,538.00
2023-04-23T09:58:08.009Z,537.00
2023-04-23T09:59:08.072Z,539.00
2023-04-23T10:00:14.141Z,533.00
2023-04-23T10:01:09.241Z,534.00
2023-04-23T10:02:08.159Z,535.00
2023-04-23T10:03:09.367Z,537.00
2023-04-23T10:04:09.311Z,537.00
2023-04-23T10:05:23.045Z,540.00
2023-04-23T10:08:10.394Z,534.00
2023-04-23T10:09:08.049Z,534.00
2023-04-23T10:10:09.021Z,535.00
2023-04-23T10:11:19.912Z,536.00
2023-04-23T10:12:20.803Z,534.00
2023-04-23T10:13:09.005Z,534.00
2023-04-23T10:14:08.016Z,536.00
2023-04-23T10:15:08.024Z,538.00
2023-04-23T10:16:21.794Z,539.00
2023-04-23T10:17:09.028Z,534.00
2023-04-23T10:18:07.986Z,536.00
2023-04-23T10:19:07.952Z,538.00
2023-04-23T10:20:08.996Z,539.00
2023-04-23T10:21:08.949Z,531.00
2023-04-23T10:23:08.932Z,538.00
2023-04-23T10:24:07.917Z,538.00
2023-04-23T10:25:07.904Z,539.00
2023-04-23T10:26:08.921Z,533.00
2023-04-23T10:28:07.894Z,533.00
2023-04-23T10:29:08.882Z,530.00
2023-04-23T10:30:08.896Z,530.00
2023-04-23T10:31:07.947Z,531.00
2023-04-23T10:32:08.872Z,525.00
2023-04-23T10:33:15.771Z,527.00
2023-04-23T10:34:08.863Z,528.00
2023-04-23T10:35:07.852Z,530.00
2023-04-23T10:36:08.834Z,528.00
2023-04-23T10:37:07.835Z,529.00
2023-04-23T10:38:07.820Z,527.00
2023-04-23T10:39:07.966Z,526.00
2023-04-23T10:40:07.805Z,520.00
2023-04-23T10:41:08.853Z,519.00
2023-04-23T10:42:08.791Z,518.00
2023-04-23T10:43:08.894Z,525.00
2023-04-23T10:44:09.306Z,524.00
2023-04-23T10:45:20.323Z,524.00
2023-04-23T10:46:08.829Z,524.00
2023-04-23T10:47:08.777Z,525.00
2023-04-23T10:48:08.747Z,520.00
2023-04-23T10:49:08.724Z,525.00
2023-04-23T10:50:08.728Z,519.00
2023-04-23T10:51:28.399Z,516.00
2023-04-23T10:52:19.319Z,517.00
2023-04-23T10:53:08.793Z,518.00
2023-04-23T10:54:07.691Z,520.00
2023-04-23T10:55:07.682Z,521.00
2023-04-23T10:56:07.739Z,520.00
2023-04-23T10:57:08.697Z,525.00
2023-04-23T10:58:07.847Z,517.00
2023-04-23T10:59:07.671Z,521.00
2023-04-23T11:00:08.650Z,515.00
2023-04-23T11:01:08.652Z,517.00
2023-04-23T11:02:08.763Z,517.00
2023-04-23T11:03:08.842Z,514.00
2023-04-23T11:04:08.772Z,510.00
2023-04-23T11:05:08.655Z,514.00
2023-04-23T11:06:07.638Z,512.00
2023-04-23T11:07:08.607Z,507.00
2023-04-23T11:08:18.928Z,510.00
2023-04-23T11:09:08.591Z,510.00
2023-04-23T11:10:08.593Z,511.00
2023-04-23T11:11:07.596Z,511.00
2023-04-23T11:12:07.569Z,514.00
2023-04-23T11:13:07.574Z,512.00
2023-04-23T11:14:08.608Z,516.00
2023-04-23T11:15:07.532Z,507.00
2023-04-23T11:16:07.547Z,513.00
2023-04-23T11:17:08.536Z,509.00
2023-04-23T11:18:08.609Z,505.00
2023-04-23T11:19:08.550Z,502.00
2023-04-23T11:20:07.500Z,502.00
2023-04-23T11:21:08.512Z,505.00
2023-04-23T11:22:08.579Z,508.00
2023-04-23T11:23:07.494Z,504.00
2023-04-23T11:24:08.512Z,502.00
2023-04-23T11:25:08.499Z,506.00
2023-04-23T11:26:08.493Z,506.00
2023-04-23T11:27:07.469Z,500.00
2023-04-23T11:28:08.445Z,508.00
2023-04-23T11:29:08.460Z,509.00
2023-04-23T11:30:07.429Z,508.00
2023-04-23T11:31:07.649Z,504.00
2023-04-23T11:32:07.441Z,507.00
2023-04-23T11:33:08.435Z,508.00
2023-04-23T11:34:07.410Z,507.00
2023-04-23T11:35:08.432Z,503.00
2023-04-23T11:36:07.395Z,506.00
2023-04-23T11:37:08.394Z,502.00
2023-04-23T11:38:08.375Z,503.00
2023-04-23T11:39:08.376Z,507.00
2023-04-23T11:40:07.366Z,502.00
2023-04-23T11:41:08.365Z,507.00
2023-04-23T11:42:07.357Z,510.00
2023-04-23T11:43:08.362Z,504.00
2023-04-23T11:44:08.385Z,501.00
2023-04-23T11:45:08.327Z,500.00
2023-04-23T11:46:08.359Z,507.00
2023-04-23T11:47:07.320Z,503.00
2023-04-23T11:48:08.307Z,501.00
2023-04-23T11:49:08.323Z,506.00
2023-04-23T11:50:08.294Z,504.00
2023-04-23T11:51:07.321Z,511.00
2023-04-23T11:52:08.282Z,500.00
2023-04-23T11:53:08.271Z,511.00
2023-04-23T11:54:07.272Z,507.00
2023-04-23T11:55:08.286Z,507.00
2023-04-23T11:56:08.266Z,512.00
2023-04-23T11:57:08.248Z,506.00
2023-04-23T11:58:08.224Z,507.00
2023-04-23T11:59:08.506Z,504.00
2023-04-23T12:00:08.211Z,509.00
2023-04-23T12:01:08.239Z,509.00
2023-04-23T12:02:07.293Z,509.00
2023-04-23T12:03:08.316Z,505.00
2023-04-23T12:04:07.337Z,504.00
2023-04-23T12:05:07.193Z,510.00
2023-04-23T12:06:08.171Z,504.00
2023-04-23T12:07:19.560Z,509.00
2023-04-23T12:08:08.149Z,509.00
2023-04-23T12:09:07.156Z,511.00
2023-04-23T12:10:08.145Z,509.00
2023-04-23T12:11:08.145Z,509.00
2023-04-23T12:12:07.131Z,515.00
2023-04-23T12:13:08.135Z,506.00
2023-04-23T12:14:08.108Z,508.00
2023-04-23T12:15:07.117Z,506.00
2023-04-23T12:16:10.420Z,509.00
2023-04-23T12:17:08.083Z,509.00
2023-04-23T12:18:07.082Z,509.00
2023-04-23T12:19:08.094Z,506.00
2023-04-23T12:20:08.063Z,505.00
2023-04-23T12:21:08.076Z,511.00
2023-04-23T12:22:08.059Z,509.00
2023-04-23T12:23:08.077Z,504.00
2023-04-23T12:24:08.025Z,508.00
2023-04-23T12:25:08.047Z,509.00
2023-04-23T12:26:07.043Z,510.00
2023-04-23T12:27:07.021Z,508.00
2023-04-23T12:28:07.014Z,508.00
2023-04-23T12:29:06.986Z,507.00
2023-04-23T12:30:07.499Z,503.00
2023-04-23T12:31:08.030Z,511.00
2023-04-23T12:32:08.009Z,505.00
2023-04-23T12:33:07.974Z,503.00